createdAt,value
2022-08-23T00:01:21.122Z,6.45
2022-08-23T00:03:49.351Z,8.20
2022-08-23T00:06:17.156Z,8.68
2022-08-23T00:08:49.126Z,9.27
2022-08-23T00:11:41.612Z,7.28
2022-08-23T00:14:23.746Z,8.98
2022-08-23T00:16:51.581Z,6.53
2022-08-23T00:19:20.118Z,6.38
2022-08-23T00:21:47.802Z,6.28
2022-08-23T00:24:16.527Z,6.57
2022-08-23T00:27:00.540Z,8.52
2022-08-23T00:29:31.169Z,8.02
2022-08-23T00:31:58.883Z,6.80
2022-08-23T00:34:25.738Z,9.30
2022-08-23T00:36:52.942Z,7.50
2022-08-23T00:39:20.315Z,10.05
2022-08-23T00:41:48.921Z,6.65
2022-08-23T00:44:50.723Z,7.78
2022-08-23T00:47:37.467Z,6.40
2022-08-23T00:50:24.803Z,6.85
2022-08-23T00:53:07.465Z,10.65
2022-08-23T00:55:35.176Z,6.60
2022-08-23T00:58:02.380Z,7.05
2022-08-23T01:00:29.785Z,7.95
2022-08-23T01:02:57.778Z,7.63
2022-08-23T01:05:36.189Z,6.93
2022-08-23T01:08:03.075Z,7.05
2022-08-23T01:10:32.168Z,6.47
2022-08-23T01:13:08.479Z,6.80
2022-08-23T01:15:41.460Z,6.55
2022-08-23T01:18:13.339Z,6.55
2022-08-23T01:20:51.213Z,10.48
2022-08-23T01:23:22.214Z,6.55
2022-08-23T01:25:48.794Z,7.22
2022-08-23T01:28:15.555Z,8.32
2022-08-23T01:30:44.568Z,7.80
2022-08-23T01:33:11.111Z,10.63
2022-08-23T01:35:55.479Z,9.57
2022-08-23T01:38:23.460Z,9.38
2022-08-23T01:40:51.563Z,8.65
2022-08-23T01:43:21.422Z,7.97
2022-08-23T01:45:49.606Z,10.07
2022-08-23T01:48:17.693Z,8.45
2022-08-23T01:50:45.296Z,7.30
2022-08-23T01:53:12.460Z,8.75
2022-08-23T01:55:40.706Z,10.40
2022-08-23T01:58:08.083Z,9.45
2022-08-23T02:00:39.100Z,7.93
2022-08-23T02:03:07.335Z,10.23
2022-08-23T02:05:37.210Z,12.93
2022-08-23T02:08:24.073Z,7.72
2022-08-23T02:10:51.267Z,8.50
2022-08-23T02:13:18.130Z,10.52
2022-08-23T02:15:45.666Z,12.75
2022-08-23T02:18:13.482Z,12.68
2022-08-23T02:20:46.099Z,8.85
2022-08-23T02:23:12.881Z,8.45
2022-08-23T02:25:40.280Z,12.05
2022-08-23T02:28:08.203Z,12.38
2022-08-23T02:30:34.770Z,14.25
2022-08-23T02:33:02.021Z,11.13
2022-08-23T02:35:33.345Z,17.60
2022-08-23T02:38:07.391Z,9.02
2022-08-23T02:40:35.278Z,15.27
2022-08-23T02:43:02.870Z,13.32
2022-08-23T02:45:30.115Z,12.90
2022-08-23T02:47:57.274Z,15.57
2022-08-23T02:50:24.195Z,12.30
2022-08-23T02:52:50.867Z,13.65
2022-08-23T02:55:17.483Z,15.50
2022-08-23T02:57:44.139Z,15.63
2022-08-23T03:00:13.478Z,13.73
2022-08-23T03:02:40.504Z,15.45
2022-08-23T03:05:10.587Z,16.00
2022-08-23T03:07:37.442Z,13.48
2022-08-23T03:10:06.235Z,11.38
2022-08-23T03:12:33.501Z,11.38
2022-08-23T03:15:00.068Z,15.32
2022-08-23T03:17:26.686Z,13.00
2022-08-23T03:19:53.495Z,17.73
2022-08-23T03:22:20.088Z,12.48
2022-08-23T03:24:46.831Z,12.50
2022-08-23T03:27:13.385Z,14.65
2022-08-23T03:29:39.991Z,12.07
2022-08-23T03:32:07.472Z,13.80
2022-08-23T03:34:34.815Z,13.10
2022-08-23T03:37:01.603Z,13.68
2022-08-23T03:39:29.525Z,15.80
2022-08-23T03:41:56.087Z,13.80
2022-08-23T03:44:22.615Z,17.95
2022-08-23T03:46:50.998Z,15.80
2022-08-23T03:49:17.541Z,12.65
2022-08-23T03:51:44.108Z,14.35
2022-08-23T03:54:10.952Z,12.68
2022-08-23T03:56:40.504Z,14.55
2022-08-23T03:59:11.505Z,20.90
2022-08-23T04:01:38.104Z,13.90
2022-08-23T04:04:05.268Z,17.30
2022-08-23T04:06:33.137Z,16.30
2022-08-23T04:09:00.116Z,13.57
2022-08-23T04:11:27.612Z,14.00
2022-08-23T04:13:54.407Z,15.05
2022-08-23T04:16:21.043Z,17.75
2022-08-23T04:18:47.973Z,13.70
2022-08-23T04:21:20.705Z,14.82
2022-08-23T04:23:47.241Z,13.43
2022-08-23T04:26:13.805Z,15.77
2022-08-23T04:28:40.605Z,16.45
2022-08-23T04:31:07.366Z,12.65
2022-08-23T04:33:35.655Z,15.13
2022-08-23T04:36:07.164Z,12.45
2022-08-23T04:38:33.684Z,12.95
2022-08-23T04:41:19.030Z,17.58
2022-08-23T04:43:45.676Z,14.93
2022-08-23T04:46:15.434Z,15.35
2022-08-23T04:48:46.590Z,15.15
2022-08-23T04:51:13.811Z,13.05
2022-08-23T04:53:40.958Z,13.80
2022-08-23T04:56:08.855Z,15.88
2022-08-23T04:58:36.964Z,13.48
2022-08-23T05:01:07.932Z,17.83
2022-08-23T05:03:34.932Z,14.85
2022-08-23T05:06:01.875Z,16.33
2022-08-23T05:08:28.502Z,17.65
2022-08-23T05:10:55.480Z,16.05
2022-08-23T05:13:22.298Z,16.52
2022-08-23T05:15:52.607Z,16.77
2022-08-23T05:18:19.636Z,17.75
2022-08-23T05:20:46.515Z,14.52
2022-08-23T05:23:13.148Z,14.88
2022-08-23T05:25:53.246Z,16.15
2022-08-23T05:28:24.014Z,16.52
2022-08-23T05:31:10.424Z,17.90
2022-08-23T05:33:39.237Z,20.15
2022-08-23T05:36:06.629Z,15.73
2022-08-23T05:38:34.294Z,15.23
2022-08-23T05:41:05.301Z,17.25
2022-08-23T05:43:34.419Z,15.98
2022-08-23T05:46:02.355Z,15.23
2022-08-23T05:48:31.967Z,16.38
2022-08-23T05:51:08.575Z,18.45
2022-08-23T05:53:35.166Z,17.23
2022-08-23T05:56:17.962Z,16.38
2022-08-23T05:58:46.360Z,16.65
2022-08-23T06:01:14.521Z,18.48
2022-08-23T06:03:42.575Z,18.05
2022-08-23T06:06:10.441Z,20.80
2022-08-23T06:08:40.818Z,19.67
2022-08-23T06:11:11.005Z,18.52
2022-08-23T06:13:43.848Z,15.15
2022-08-23T06:16:15.118Z,20.63
2022-08-23T06:18:42.943Z,17.42
2022-08-23T06:21:11.689Z,17.15
2022-08-23T06:23:38.806Z,16.17
2022-08-23T06:26:14.438Z,19.38
2022-08-23T06:28:51.028Z,18.88
2022-08-23T06:31:39.815Z,18.08
2022-08-23T06:34:07.490Z,19.30
2022-08-23T06:36:34.540Z,21.95
2022-08-23T06:39:01.100Z,22.95
2022-08-23T06:41:28.716Z,26.98
2022-08-23T06:43:55.225Z,25.10
2022-08-23T06:46:25.138Z,27.17
2022-08-23T06:48:56.050Z,28.88
2022-08-23T06:51:29.173Z,28.52
2022-08-23T06:53:58.079Z,30.77
2022-08-23T06:56:29.635Z,31.55
2022-08-23T06:58:56.860Z,30.60
2022-08-23T07:01:44.541Z,30.15
2022-08-23T07:04:15.279Z,28.90
2022-08-23T07:06:42.423Z,31.70
2022-08-23T07:09:09.009Z,30.80
2022-08-23T07:11:36.169Z,32.25
2022-08-23T07:14:06.144Z,33.80
2022-08-23T07:16:35.185Z,31.35
2022-08-23T07:19:01.831Z,29.17
2022-08-23T07:21:28.511Z,26.85
2022-08-23T07:23:55.453Z,30.35
2022-08-23T07:26:26.212Z,31.83
2022-08-23T07:28:55.357Z,25.77
2022-08-23T07:31:27.199Z,23.70
2022-08-23T07:33:55.655Z,20.40
2022-08-23T07:36:28.004Z,21.35
2022-08-23T07:38:55.739Z,23.13
2022-08-23T07:41:31.086Z,24.40
2022-08-23T07:44:02.197Z,30.88
2022-08-23T07:46:30.940Z,31.55
2022-08-23T07:48:59.618Z,50.05
2022-08-23T07:51:27.562Z,51.33
2022-08-23T07:53:54.394Z,57.25
2022-08-23T07:56:22.018Z,54.78
2022-08-23T07:58:48.675Z,57.33
2022-08-23T08:01:19.133Z,72.00
2022-08-23T08:03:47.850Z,73.45
2022-08-23T08:06:21.590Z,82.47
2022-08-23T08:08:49.180Z,94.32
2022-08-23T08:11:18.942Z,100.65
2022-08-23T08:13:46.414Z,92.00
2022-08-23T08:16:29.867Z,96.28
2022-08-23T08:18:59.331Z,96.33
2022-08-23T08:21:27.875Z,125.40
2022-08-23T08:23:55.446Z,112.85
2022-08-23T08:26:22.998Z,96.72
2022-08-23T08:28:49.686Z,103.88
2022-08-23T08:31:16.687Z,124.50
2022-08-23T08:33:43.271Z,155.88
2022-08-23T08:36:29.121Z,191.10
2022-08-23T08:38:58.829Z,190.27
2022-08-23T08:42:05.399Z,212.00
2022-08-23T08:44:49.688Z,210.75
2022-08-23T08:47:31.442Z,201.68
2022-08-23T08:50:06.783Z,217.68
2022-08-23T08:52:40.932Z,233.02
2022-08-23T08:55:12.523Z,248.98
2022-08-23T08:57:43.339Z,239.80
2022-08-23T09:00:19.865Z,263.33
2022-08-23T09:02:47.036Z,263.95
2022-08-23T09:05:26.999Z,299.52
2022-08-23T09:08:11.727Z,302.55
2022-08-23T09:11:13.951Z,272.10
2022-08-23T09:14:10.278Z,262.52
2022-08-23T09:17:05.502Z,275.27
2022-08-23T09:19:37.362Z,275.13
2022-08-23T09:22:20.475Z,294.25
2022-08-23T09:24:47.040Z,281.00
2022-08-23T09:27:13.618Z,275.83
2022-08-23T09:29:52.965Z,291.23
2022-08-23T09:32:51.365Z,304.17
2022-08-23T09:35:24.257Z,307.90
2022-08-23T09:38:16.654Z,333.40
2022-08-23T09:40:49.748Z,343.88
2022-08-23T09:43:18.592Z,360.83
2022-08-23T09:45:50.936Z,397.70
2022-08-23T09:48:39.926Z,398.85
2022-08-23T09:51:22.456Z,411.90
2022-08-23T09:53:53.418Z,385.17
2022-08-23T09:56:26.490Z,335.45
2022-08-23T09:58:54.456Z,397.03
2022-08-23T10:01:38.959Z,360.15
2022-08-23T10:04:08.636Z,405.42
2022-08-23T10:06:36.399Z,435.52
2022-08-23T10:09:06.459Z,390.20
2022-08-23T10:11:45.290Z,343.80
2022-08-23T10:14:20.651Z,374.67
2022-08-23T10:17:14.078Z,355.73
2022-08-23T10:19:52.619Z,385.83
2022-08-23T10:22:23.742Z,369.13
2022-08-23T10:25:17.722Z,440.92
2022-08-23T10:28:05.623Z,361.35
2022-08-23T10:31:14.558Z,402.27
2022-08-23T10:33:50.373Z,395.42
2022-08-23T10:36:38.478Z,368.02
2022-08-23T10:39:18.785Z,338.27
2022-08-23T10:42:06.355Z,421.48
2022-08-23T10:45:09.727Z,412.27
2022-08-23T10:48:03.703Z,347.17
2022-08-23T10:50:44.748Z,461.08
2022-08-23T10:53:28.638Z,336.80
2022-08-23T10:56:03.143Z,350.20
2022-08-23T10:58:47.573Z,239.73
2022-08-23T11:01:21.214Z,426.17
2022-08-23T11:04:00.390Z,167.15
2022-08-23T11:06:39.801Z,191.73
2022-08-23T11:09:31.844Z,156.60
2022-08-23T11:12:20.225Z,234.68
2022-08-23T11:15:10.034Z,256.85
2022-08-23T11:17:52.190Z,178.98
2022-08-23T11:20:49.711Z,217.73
2022-08-23T11:23:38.649Z,191.23
2022-08-23T11:26:11.570Z,171.80
2022-08-23T11:28:42.338Z,194.13
2022-08-23T11:31:08.849Z,164.73
2022-08-23T11:33:51.968Z,126.47
2022-08-23T11:36:25.015Z,117.50
2022-08-23T11:38:51.546Z,105.35
2022-08-23T11:41:24.035Z,111.43
2022-08-23T11:44:10.989Z,155.82
2022-08-23T11:46:59.298Z,108.53
2022-08-23T11:49:28.643Z,137.10
2022-08-23T11:52:06.391Z,130.73
2022-08-23T11:54:35.880Z,161.57
2022-08-23T11:57:24.260Z,179.18
2022-08-23T12:00:06.458Z,226.23
2022-08-23T12:02:38.895Z,244.40
2022-08-23T12:05:34.440Z,237.18
2022-08-23T12:08:04.284Z,235.25
2022-08-23T12:10:43.052Z,288.00
2022-08-23T12:13:19.399Z,258.45
2022-08-23T12:16:16.529Z,251.63
2022-08-23T12:18:47.494Z,268.33
2022-08-23T12:21:47.501Z,264.25
2022-08-23T12:24:32.640Z,257.73
2022-08-23T12:26:59.225Z,274.98
2022-08-23T12:29:37.323Z,301.13
2022-08-23T12:32:12.472Z,284.48
2022-08-23T12:35:07.352Z,318.60
2022-08-23T12:37:47.439Z,329.75
2022-08-23T12:40:21.655Z,306.45
2022-08-23T12:42:48.471Z,297.05
2022-08-23T12:45:23.398Z,207.23
2022-08-23T12:48:02.654Z,213.13
2022-08-23T12:50:35.649Z,225.35
2022-08-23T12:53:06.815Z,192.63
2022-08-23T12:55:38.063Z,182.02
2022-08-23T12:58:06.626Z,217.38
2022-08-23T13:00:43.329Z,196.98
2022-08-23T13:03:18.148Z,177.57
2022-08-23T13:06:03.150Z,135.77
2022-08-23T13:08:38.660Z,139.57
2022-08-23T13:11:08.716Z,150.98
2022-08-23T13:13:38.713Z,139.95
2022-08-23T13:16:27.439Z,151.88
2022-08-23T13:18:56.280Z,143.45
2022-08-23T13:21:22.958Z,141.80
2022-08-23T13:23:51.460Z,157.45
2022-08-23T13:26:40.842Z,151.10
2022-08-23T13:29:24.050Z,157.43
2022-08-23T13:32:05.887Z,208.95
2022-08-23T13:34:48.647Z,226.15
2022-08-23T13:37:21.585Z,265.15
2022-08-23T13:40:12.410Z,265.65
2022-08-23T13:42:51.127Z,251.90
2022-08-23T13:45:26.363Z,221.10
2022-08-23T13:48:10.616Z,219.23
2022-08-23T13:50:38.750Z,199.65
2022-08-23T13:53:15.224Z,62.70
2022-08-23T13:55:55.579Z,37.53
2022-08-23T13:58:29.566Z,26.77
2022-08-23T14:00:59.005Z,24.23
2022-08-23T14:03:27.661Z,25.02
2022-08-23T14:05:54.459Z,22.30
2022-08-23T14:08:21.467Z,22.33
2022-08-23T14:10:48.120Z,22.23
2022-08-23T14:13:17.141Z,22.98
2022-08-23T14:18:32.741Z,29.50
2022-08-23T14:20:59.511Z,34.35
2022-08-23T14:23:26.126Z,28.83
2022-08-23T14:25:55.794Z,25.40
2022-08-23T14:28:26.144Z,33.90
2022-08-23T14:30:56.960Z,34.25
2022-08-23T14:33:23.967Z,37.63
2022-08-23T14:35:52.375Z,32.38
2022-08-23T14:38:19.149Z,30.50
2022-08-23T14:40:53.198Z,25.98
2022-08-23T14:43:21.505Z,24.40
2022-08-23T14:45:48.540Z,24.45
2022-08-23T14:48:16.164Z,26.38
2022-08-23T14:50:43.810Z,29.52
2022-08-23T14:53:11.718Z,30.67
2022-08-23T14:55:38.344Z,29.58
2022-08-23T14:58:04.866Z,30.75
2022-08-23T15:00:32.907Z,28.35
2022-08-23T15:02:59.603Z,27.25
2022-08-23T15:05:26.128Z,24.05
2022-08-23T15:07:52.691Z,23.88
2022-08-23T15:13:29.855Z,22.48
2022-08-23T15:15:53.407Z,22.73
2022-08-23T15:18:20.147Z,22.48
2022-08-23T15:20:47.063Z,23.80
2022-08-23T15:23:14.150Z,22.92
2022-08-23T15:25:42.237Z,26.00
2022-08-23T15:28:13.500Z,29.15
2022-08-23T15:30:41.368Z,25.88
2022-08-23T15:33:10.507Z,26.65
2022-08-23T15:35:41.711Z,25.75
2022-08-23T15:38:09.502Z,25.30
2022-08-23T15:40:36.568Z,26.15
2022-08-23T15:43:03.608Z,27.05
2022-08-23T15:45:32.365Z,28.60
2022-08-23T15:48:01.393Z,26.30
2022-08-23T15:50:33.217Z,30.02
2022-08-23T15:52:59.948Z,25.48
2022-08-23T15:55:30.939Z,28.02
2022-08-23T15:57:58.373Z,27.48
2022-08-23T16:00:26.442Z,28.50
2022-08-23T16:03:27.807Z,24.92
2022-08-23T16:05:43.436Z,23.23
2022-08-23T16:08:32.195Z,25.30
2022-08-23T16:10:59.298Z,28.92
2022-08-23T16:13:26.767Z,28.83
2022-08-23T16:15:53.826Z,37.13
2022-08-23T16:18:20.530Z,45.67
2022-08-23T16:20:47.095Z,37.42
2022-08-23T16:23:13.679Z,51.05
2022-08-23T16:25:40.859Z,46.60
2022-08-23T16:28:08.073Z,50.13
2022-08-23T16:30:35.222Z,69.65
2022-08-23T16:33:02.309Z,70.10
2022-08-23T16:35:29.025Z,66.93
2022-08-23T16:37:55.651Z,84.65
2022-08-23T16:40:22.798Z,104.55
2022-08-23T16:42:49.432Z,129.45
2022-08-23T16:45:16.082Z,142.75
2022-08-23T16:47:52.688Z,211.60
2022-08-23T16:50:19.232Z,261.88
2022-08-23T16:52:45.739Z,316.52
2022-08-23T16:55:12.779Z,349.23
2022-08-23T16:57:40.268Z,357.42
2022-08-23T17:00:10.848Z,360.50
2022-08-23T17:02:38.394Z,391.98
2022-08-23T17:05:08.354Z,393.02
2022-08-23T17:07:35.083Z,439.50
2022-08-23T17:10:01.937Z,431.25
2022-08-23T17:12:28.769Z,454.15
2022-08-23T17:14:57.331Z,463.98
2022-08-23T17:17:24.653Z,468.90
2022-08-23T17:19:51.286Z,476.48
2022-08-23T17:22:17.915Z,484.77
2022-08-23T17:24:44.427Z,474.70
2022-08-23T17:27:19.143Z,510.70
2022-08-23T17:29:45.937Z,527.15
2022-08-23T17:32:13.142Z,551.47
2022-08-23T17:34:39.666Z,578.97
2022-08-23T17:37:15.729Z,606.42
2022-08-23T17:39:42.351Z,640.83
2022-08-23T17:42:09.074Z,664.25
2022-08-23T17:44:36.159Z,691.78
2022-08-23T17:47:07.683Z,709.45
2022-08-23T17:49:34.632Z,712.72
2022-08-23T17:52:03.458Z,698.33
2022-08-23T17:54:29.990Z,687.85
2022-08-23T17:56:57.041Z,656.72
2022-08-23T17:59:23.690Z,640.35
2022-08-23T18:01:50.208Z,625.15
2022-08-23T18:04:17.192Z,614.95
2022-08-23T18:06:44.146Z,618.58
2022-08-23T18:09:11.386Z,626.10
2022-08-23T18:11:38.075Z,626.10
2022-08-23T18:14:05.582Z,606.83
2022-08-23T18:16:35.520Z,588.85
2022-08-23T18:19:04.281Z,587.50
2022-08-23T18:21:31.172Z,554.75
2022-08-23T18:23:58.913Z,537.70
2022-08-23T18:26:44.896Z,463.70
2022-08-23T18:29:14.383Z,476.35
2022-08-23T18:31:43.272Z,461.02
2022-08-23T18:34:11.070Z,424.48
2022-08-23T18:36:38.122Z,415.65
2022-08-23T18:39:05.911Z,413.77
2022-08-23T18:41:32.511Z,398.02
2022-08-23T18:43:59.751Z,391.95
2022-08-23T18:46:36.275Z,394.75
2022-08-23T18:49:05.054Z,378.98
2022-08-23T18:51:31.946Z,372.30
2022-08-23T18:53:58.965Z,362.88
2022-08-23T18:56:26.111Z,357.77
2022-08-23T18:58:53.456Z,340.58
2022-08-23T19:01:21.159Z,314.25
2022-08-23T19:03:47.966Z,312.23
2022-08-23T19:06:14.814Z,302.17
2022-08-23T19:08:41.363Z,304.08
2022-08-23T19:11:08.543Z,275.48
2022-08-23T19:13:35.279Z,267.80
2022-08-23T19:16:02.740Z,275.20
2022-08-23T19:18:29.880Z,242.95
2022-08-23T19:20:56.395Z,230.05
2022-08-23T19:23:22.979Z,206.55
2022-08-23T19:25:49.625Z,175.90
2022-08-23T19:28:19.582Z,155.55
2022-08-23T19:30:48.978Z,157.80
2022-08-23T19:33:16.460Z,135.95
2022-08-23T19:35:43.508Z,123.40
2022-08-23T19:38:10.647Z,121.35
2022-08-23T19:40:37.263Z,121.72
2022-08-23T19:43:05.307Z,121.65
2022-08-23T19:45:32.424Z,125.57
2022-08-23T19:48:00.190Z,107.75
2022-08-23T19:50:28.176Z,105.68
2022-08-23T19:52:54.731Z,115.03
2022-08-23T19:55:21.668Z,114.57
2022-08-23T19:57:48.299Z,119.38
2022-08-23T20:00:19.355Z,110.78
2022-08-23T20:02:46.460Z,111.85
2022-08-23T20:05:12.971Z,108.82
2022-08-23T20:07:39.554Z,101.75
2022-08-23T20:10:08.432Z,97.55
2022-08-23T20:12:35.468Z,89.45
2022-08-23T20:15:02.692Z,89.95
2022-08-23T20:17:29.238Z,82.25
2022-08-23T20:19:55.938Z,85.85
2022-08-23T20:22:40.970Z,74.63
2022-08-23T20:25:08.365Z,72.20
2022-08-23T20:27:37.080Z,63.47
2022-08-23T20:30:08.810Z,69.18
2022-08-23T20:32:36.485Z,59.28
2022-08-23T20:35:05.600Z,53.53
2022-08-23T20:37:32.134Z,46.85
2022-08-23T20:39:59.271Z,28.73
2022-08-23T20:42:26.217Z,35.33
2022-08-23T20:44:53.283Z,30.48
2022-08-23T20:47:20.203Z,29.58
2022-08-23T20:49:46.822Z,25.70
2022-08-23T20:52:13.521Z,25.67
2022-08-23T20:54:40.086Z,24.80
2022-08-23T20:57:06.586Z,20.92
2022-08-23T20:59:33.132Z,21.65
2022-08-23T21:01:59.764Z,22.17
2022-08-23T21:04:29.871Z,20.70
2022-08-23T21:06:57.455Z,17.30
2022-08-23T21:09:29.292Z,20.52
2022-08-23T21:11:56.635Z,16.27
2022-08-23T21:14:23.495Z,16.60
2022-08-23T21:16:50.051Z,15.88
2022-08-23T21:19:17.181Z,16.60
2022-08-23T21:21:44.007Z,19.58
2022-08-23T21:24:11.581Z,22.13
2022-08-23T21:26:39.375Z,19.63
2022-08-23T21:29:07.904Z,19.13
2022-08-23T21:31:35.004Z,20.77
2022-08-23T21:34:01.762Z,22.02
2022-08-23T21:36:28.384Z,21.80
2022-08-23T21:38:56.030Z,22.30
2022-08-23T21:41:38.625Z,23.05
2022-08-23T21:44:08.606Z,21.98
2022-08-23T21:46:35.840Z,20.92
2022-08-23T21:49:03.212Z,26.65
2022-08-23T21:51:29.849Z,26.77
2022-08-23T21:53:57.022Z,25.67
2022-08-23T21:56:24.721Z,26.55
2022-08-23T21:58:53.411Z,25.70
2022-08-23T22:01:20.031Z,26.48
2022-08-23T22:03:46.615Z,26.02
2022-08-23T22:06:15.142Z,26.75
2022-08-23T22:08:44.092Z,23.65
2022-08-23T22:11:11.384Z,19.92
2022-08-23T22:13:39.043Z,17.38
2022-08-23T22:16:07.065Z,17.30
2022-08-23T22:18:34.942Z,15.18
2022-08-23T22:21:02.415Z,15.13
2022-08-23T22:23:31.363Z,14.27
2022-08-23T22:26:01.035Z,13.13
2022-08-23T22:28:29.111Z,13.70
2022-08-23T22:31:05.744Z,12.43
2022-08-23T22:33:33.211Z,14.15
2022-08-23T22:36:11.750Z,14.60
2022-08-23T22:38:39.051Z,12.95
2022-08-23T22:41:06.976Z,13.70
2022-08-23T22:43:33.833Z,15.82
2022-08-23T22:46:02.563Z,16.27
2022-08-23T22:48:32.036Z,20.08
2022-08-23T22:51:23.535Z,18.05
2022-08-23T22:53:56.514Z,17.45
2022-08-23T22:56:29.381Z,19.33
2022-08-23T22:58:56.832Z,22.38
2022-08-23T23:01:30.999Z,22.75
2022-08-23T23:03:59.523Z,22.20
2022-08-23T23:06:28.008Z,21.90
2022-08-23T23:08:56.169Z,20.73
2022-08-23T23:11:23.715Z,18.02
2022-08-23T23:13:50.660Z,14.75
2022-08-23T23:16:20.857Z,15.98
2022-08-23T23:19:16.922Z,14.57
2022-08-23T23:21:46.810Z,13.18
2022-08-23T23:24:17.983Z,13.13
2022-08-23T23:26:47.891Z,12.95
2022-08-23T23:29:14.901Z,12.00
2022-08-23T23:31:41.671Z,11.40
2022-08-23T23:34:08.771Z,10.52
2022-08-23T23:36:35.803Z,11.93
2022-08-23T23:39:04.074Z,12.68
2022-08-23T23:41:31.218Z,12.35
2022-08-23T23:43:58.656Z,12.60
2022-08-23T23:46:25.337Z,13.57
2022-08-23T23:48:52.456Z,13.80
2022-08-23T23:51:23.387Z,13.60
2022-08-23T23:53:51.048Z,15.32
2022-08-23T23:56:18.867Z,16.48
2022-08-23T23:58:47.682Z,16.70
